Salisbury, Canada
Current Conditions -  °F | °C
As of 6:00 PM on Monday 20 Oct 2014 (Local Time) from CYQM Reporting Station
Scattered Clouds Scattered Clouds  
Wind Chill: 36°   Ceiling: Unl
Heat Index: 43°   Visibility: 15mi
Dew Point: 27°   Wind: 14mph
Humidity: 53%   Direction: 260°W
Pressure: 29.81"   Gusts: 24mph
Location:  46.03°N, 65.05°W
Report Text: CYQM 202100Z 26012G21KT 15SM SCT038 SCT100 06/M03 A2981 RMK CU3AC1 AC TR SLP095
Loading
Personal Weather Stations






























Interactive Weather Map
Tropical Storm Tracking
New forecast layout! Learn more

10-Day Weather Forecast

Advertisements
Track Severe Weather on mobile